createdAt,value
2023-12-31T00:01:21.559Z,32.80
2023-12-31T00:04:51.125Z,34.70
2023-12-31T00:09:17.215Z,31.10
2023-12-31T00:11:57.892Z,29.60
2023-12-31T00:19:47.005Z,29.10
2023-12-31T00:22:38.320Z,31.50
2023-12-31T00:25:16.988Z,39.40
2023-12-31T00:28:22.995Z,48.00
2023-12-31T00:31:20.577Z,53.50
2023-12-31T00:33:57.046Z,45.30
2023-12-31T00:36:37.905Z,39.00
2023-12-31T00:39:19.131Z,31.70
2023-12-31T00:42:24.706Z,26.60
2023-12-31T00:44:52.877Z,28.00
2023-12-31T00:47:54.073Z,28.00
2023-12-31T00:51:13.137Z,26.60
2023-12-31T00:58:29.479Z,23.10
2023-12-31T01:01:48.010Z,25.90
2023-12-31T01:05:15.306Z,24.60
2023-12-31T01:08:35.714Z,23.30
2023-12-31T01:14:21.654Z,24.70
2023-12-31T01:24:50.380Z,25.30
2023-12-31T01:28:53.523Z,23.90
2023-12-31T01:40:16.638Z,20.10
2023-12-31T01:42:56.717Z,23.00
2023-12-31T01:46:46.580Z,23.70
2023-12-31T01:49:48.904Z,23.10
2023-12-31T01:52:45.077Z,21.90
2023-12-31T01:55:24.345Z,22.60
2023-12-31T01:58:00.451Z,21.60
2023-12-31T02:02:49.274Z,24.00
2023-12-31T02:21:02.564Z,21.90
2023-12-31T02:27:10.304Z,19.90
2023-12-31T02:31:55.405Z,19.90
2023-12-31T02:34:29.501Z,21.30
2023-12-31T02:41:02.608Z,22.80
2023-12-31T02:43:48.411Z,20.90
2023-12-31T02:46:37.151Z,20.80
2023-12-31T02:49:33.580Z,21.00
2023-12-31T02:52:36.723Z,21.10
2023-12-31T02:55:09.520Z,21.60
2023-12-31T02:58:41.913Z,23.90
2023-12-31T03:01:15.449Z,20.70
2023-12-31T03:03:43.105Z,21.20
2023-12-31T03:06:15.421Z,22.70
2023-12-31T03:08:43.165Z,21.30
2023-12-31T03:15:12.599Z,20.80
2023-12-31T03:18:53.297Z,18.30
2023-12-31T03:20:54.626Z,18.30
2023-12-31T03:23:51.143Z,18.00
2023-12-31T03:26:32.200Z,19.30
2023-12-31T03:29:33.893Z,18.00
2023-12-31T03:32:42.275Z,18.20
2023-12-31T03:35:23.971Z,18.70
2023-12-31T03:38:06.924Z,21.60
2023-12-31T03:41:14.259Z,17.80
2023-12-31T05:07:55.531Z,15.80
2023-12-31T05:12:13.592Z,15.50
2023-12-31T05:32:59.912Z,15.90
2023-12-31T05:55:01.741Z,15.80
2023-12-31T07:28:20.384Z,18.70
2023-12-31T07:44:25.314Z,20.50
2023-12-31T07:47:21.384Z,20.90
2023-12-31T07:52:01.017Z,22.00
2023-12-31T08:52:48.509Z,27.40
2023-12-31T09:14:23.782Z,16.60
2023-12-31T09:36:51.743Z,27.50
2023-12-31T09:43:34.619Z,27.30
2023-12-31T10:01:31.435Z,18.80
2023-12-31T10:09:02.473Z,18.10
2023-12-31T10:13:02.386Z,7.40
2023-12-31T10:29:21.979Z,4.50
2023-12-31T10:41:58.853Z,4.10
2023-12-31T10:45:02.104Z,4.10
2023-12-31T10:48:13.417Z,3.70
2023-12-31T10:51:28.160Z,3.10
2023-12-31T10:54:19.853Z,3.50
2023-12-31T10:57:06.509Z,3.20
2023-12-31T11:04:42.307Z,3.00
2023-12-31T11:08:00.229Z,3.10
2023-12-31T11:11:01.576Z,3.90
2023-12-31T11:14:24.248Z,3.50
2023-12-31T11:32:03.100Z,2.90
2023-12-31T11:39:44.890Z,3.10
2023-12-31T11:42:41.010Z,2.70
2023-12-31T11:45:54.060Z,3.10
2023-12-31T11:48:47.033Z,3.10
2023-12-31T11:51:28.277Z,3.20
2023-12-31T11:57:46.455Z,2.60
2023-12-31T12:00:36.994Z,2.40
2023-12-31T12:03:16.983Z,2.30
2023-12-31T12:05:56.596Z,2.30
2023-12-31T12:08:49.288Z,4.70
2023-12-31T12:11:51.914Z,2.90
2023-12-31T12:16:48.962Z,3.30
2023-12-31T12:19:40.051Z,3.30
2023-12-31T12:22:15.996Z,2.70
2023-12-31T12:25:32.933Z,2.70
2023-12-31T12:29:00.905Z,4.50
2023-12-31T12:31:58.066Z,3.10
2023-12-31T12:34:38.834Z,2.60
2023-12-31T12:37:15.315Z,3.10
2023-12-31T12:39:44.609Z,2.50
2023-12-31T12:42:29.138Z,2.20
2023-12-31T12:44:58.861Z,2.50
2023-12-31T12:47:27.240Z,2.50
2023-12-31T12:50:01.834Z,2.30
2023-12-31T12:52:41.054Z,10.20
2023-12-31T12:55:12.261Z,3.80
2023-12-31T12:58:10.026Z,3.90
2023-12-31T13:00:53.038Z,2.90
2023-12-31T13:03:23.210Z,3.20
2023-12-31T13:05:54.826Z,3.70
2023-12-31T13:08:22.929Z,4.50
2023-12-31T13:10:53.951Z,4.50
2023-12-31T13:13:56.151Z,3.10
2023-12-31T13:16:58.094Z,3.00
2023-12-31T13:19:41.841Z,3.10
2023-12-31T13:22:23.687Z,3.00
2023-12-31T13:25:11.602Z,3.30
2023-12-31T13:27:41.285Z,3.40
2023-12-31T13:30:27.964Z,3.30
2023-12-31T13:33:00.180Z,3.80
2023-12-31T13:35:30.404Z,4.00
2023-12-31T13:38:10.707Z,4.00
2023-12-31T13:49:37.098Z,2.60
2023-12-31T14:06:09.444Z,5.90
2023-12-31T14:10:14.711Z,4.00
2023-12-31T14:13:02.523Z,2.70
2023-12-31T14:17:08.945Z,3.40
2023-12-31T14:29:33.393Z,3.40
2023-12-31T14:32:19.702Z,7.20
2023-12-31T14:35:33.285Z,6.80
2023-12-31T14:38:57.468Z,5.20
2023-12-31T14:41:55.705Z,3.60
2023-12-31T14:44:32.884Z,4.00
2023-12-31T14:47:09.795Z,4.00
2023-12-31T14:49:45.622Z,3.80
2023-12-31T14:52:19.254Z,5.50
2023-12-31T14:55:08.870Z,4.70
2023-12-31T14:58:14.144Z,7.10
2023-12-31T15:01:52.292Z,15.60
2023-12-31T16:00:34.609Z,11.20
2023-12-31T16:03:05.270Z,10.80
2023-12-31T17:46:38.730Z,31.10
2023-12-31T17:49:37.162Z,29.00
2023-12-31T18:09:27.666Z,20.70
2023-12-31T18:25:55.544Z,25.80
2023-12-31T19:23:53.270Z,18.80
2023-12-31T19:33:37.250Z,16.10
2023-12-31T19:54:07.072Z,10.00
2023-12-31T21:23:04.573Z,21.20
2023-12-31T21:57:42.310Z,21.40
2023-12-31T22:00:27.153Z,15.30
2023-12-31T22:03:04.060Z,16.90
2023-12-31T23:19:48.163Z,5.10
2023-12-31T23:45:35.068Z,12.40
